X  Fermer Données météorologiques d'aviation de Metar     KOMA Eppley Airfield
Température
23°F Température
7°F Point de rosée
50% Humidité



Vitesse
13 MPH
21 KM/H
6 M/S
11 KTS



160°
SSE
Conditions actuelles

Plutôt nuageux Plutôt nuageux
Pression 1022.32 (hPa) - 30.19 (inHg)
Visibilité 10 (mile) - 16.1 (km)
Aéroport
Code de l'aéroport KOMA

Emplacement: Eppley Airfield
Distance: 20 (mi)

Metar:
KOMA 040352Z 16011KT 10SM BKN250 M05/M14 A3019 RMK AO2 SLP242 T10501144

Temps: 02-03-2023 21:52 CST